sensor_id;sensor_type;location;lat;lon;timestamp;P1;durP1;ratioP1;P2;durP2;ratioP2
75687;SDS011;64300;45.034;38.910;2023-03-01T00:02:05;7.75;;;3.70;;
75687;SDS011;64300;45.034;38.910;2023-03-01T00:04:32;9.85;;;4.80;;
75687;SDS011;64300;45.034;38.910;2023-03-01T00:06:58;9.25;;;4.38;;
75687;SDS011;64300;45.034;38.910;2023-03-01T00:09:23;10.18;;;4.20;;
75687;SDS011;64300;45.034;38.910;2023-03-01T00:11:49;11.85;;;5.57;;
75687;SDS011;64300;45.034;38.910;2023-03-01T00:16:44;8.43;;;3.30;;
75687;SDS011;64300;45.034;38.910;2023-03-01T00:19:15;9.93;;;3.80;;
75687;SDS011;64300;45.034;38.910;2023-03-01T00:21:45;10.75;;;4.25;;
75687;SDS011;64300;45.034;38.910;2023-03-01T00:24:11;5.45;;;2.30;;
75687;SDS011;64300;45.034;38.910;2023-03-01T00:26:37;12.00;;;4.80;;
75687;SDS011;64300;45.034;38.910;2023-03-01T00:31:30;7.75;;;3.70;;
75687;SDS011;64300;45.034;38.910;2023-03-01T00:33:58;8.73;;;3.88;;
75687;SDS011;64300;45.034;38.910;2023-03-01T00:36:27;9.57;;;5.00;;
75687;SDS011;64300;45.034;38.910;2023-03-01T00:38:55;10.85;;;4.43;;
75687;SDS011;64300;45.034;38.910;2023-03-01T00:43:51;11.90;;;5.72;;
75687;SDS011;64300;45.034;38.910;2023-03-01T00:46:25;10.50;;;4.63;;
75687;SDS011;64300;45.034;38.910;2023-03-01T00:48:51;10.65;;;4.78;;
75687;SDS011;64300;45.034;38.910;2023-03-01T00:53:46;10.93;;;5.70;;
75687;SDS011;64300;45.034;38.910;2023-03-01T00:56:13;11.25;;;4.97;;
75687;SDS011;64300;45.034;38.910;2023-03-01T00:58:40;8.50;;;3.92;;
75687;SDS011;64300;45.034;38.910;2023-03-01T01:01:10;7.25;;;3.28;;
75687;SDS011;64300;45.034;38.910;2023-03-01T01:03:46;6.97;;;3.17;;
75687;SDS011;64300;45.034;38.910;2023-03-01T01:06:14;10.25;;;3.80;;
75687;SDS011;64300;45.034;38.910;2023-03-01T01:08:44;8.40;;;4.32;;
75687;SDS011;64300;45.034;38.910;2023-03-01T01:11:11;6.93;;;3.65;;
75687;SDS011;64300;45.034;38.910;2023-03-01T01:13:38;9.93;;;5.20;;
75687;SDS011;64300;45.034;38.910;2023-03-01T01:16:06;8.50;;;3.72;;
75687;SDS011;64300;45.034;38.910;2023-03-01T01:18:32;5.80;;;2.63;;
75687;SDS011;64300;45.034;38.910;2023-03-01T01:23:28;8.30;;;2.15;;
75687;SDS011;64300;45.034;38.910;2023-03-01T01:25:54;8.48;;;3.72;;
75687;SDS011;64300;45.034;38.910;2023-03-01T01:28:20;9.15;;;4.38;;
75687;SDS011;64300;45.034;38.910;2023-03-01T01:30:47;12.70;;;5.63;;
75687;SDS011;64300;45.034;38.910;2023-03-01T01:33:13;9.85;;;4.03;;
75687;SDS011;64300;45.034;38.910;2023-03-01T01:35:39;12.52;;;5.22;;
75687;SDS011;64300;45.034;38.910;2023-03-01T01:38:05;11.80;;;5.20;;
75687;SDS011;64300;45.034;38.910;2023-03-01T01:42:56;12.38;;;5.72;;
75687;SDS011;64300;45.034;38.910;2023-03-01T01:45:27;7.80;;;3.65;;
75687;SDS011;64300;45.034;38.910;2023-03-01T01:48:03;6.55;;;3.38;;
75687;SDS011;64300;45.034;38.910;2023-03-01T01:50:32;10.38;;;4.82;;
75687;SDS011;64300;45.034;38.910;2023-03-01T01:53:09;12.13;;;5.57;;
75687;SDS011;64300;45.034;38.910;2023-03-01T01:55:43;12.52;;;5.80;;
75687;SDS011;64300;45.034;38.910;2023-03-01T01:58:14;9.40;;;4.15;;
75687;SDS011;64300;45.034;38.910;2023-03-01T02:00:42;13.35;;;5.60;;
75687;SDS011;64300;45.034;38.910;2023-03-01T02:03:10;11.30;;;6.30;;
75687;SDS011;64300;45.034;38.910;2023-03-01T02:05:47;12.00;;;4.97;;
75687;SDS011;64300;45.034;38.910;2023-03-01T02:10:45;11.30;;;5.38;;
75687;SDS011;64300;45.034;38.910;2023-03-01T02:13:16;12.50;;;5.60;;
75687;SDS011;64300;45.034;38.910;2023-03-01T02:15:43;11.88;;;5.30;;
75687;SDS011;64300;45.034;38.910;2023-03-01T02:18:09;13.50;;;5.75;;
75687;SDS011;64300;45.034;38.910;2023-03-01T02:20:52;11.82;;;5.25;;
75687;SDS011;64300;45.034;38.910;2023-03-01T02:23:27;12.30;;;6.28;;
75687;SDS011;64300;45.034;38.910;2023-03-01T02:26:07;13.35;;;6.40;;
75687;SDS011;64300;45.034;38.910;2023-03-01T02:28:40;13.10;;;6.05;;
75687;SDS011;64300;45.034;38.910;2023-03-01T02:31:09;14.98;;;6.63;;
75687;SDS011;64300;45.034;38.910;2023-03-01T02:33:54;11.65;;;5.10;;
75687;SDS011;64300;45.034;38.910;2023-03-01T02:36:23;12.80;;;6.20;;
75687;SDS011;64300;45.034;38.910;2023-03-01T02:38:53;13.77;;;6.00;;
75687;SDS011;64300;45.034;38.910;2023-03-01T02:41:22;15.68;;;6.35;;
75687;SDS011;64300;45.034;38.910;2023-03-01T02:43:50;14.13;;;6.32;;
75687;SDS011;64300;45.034;38.910;2023-03-01T02:46:17;14.20;;;6.85;;
75687;SDS011;64300;45.034;38.910;2023-03-01T02:48:46;15.13;;;6.18;;
75687;SDS011;64300;45.034;38.910;2023-03-01T02:56:34;19.88;;;7.68;;
75687;SDS011;64300;45.034;38.910;2023-03-01T02:59:00;14.60;;;6.80;;
75687;SDS011;64300;45.034;38.910;2023-03-01T03:01:28;14.23;;;6.43;;
75687;SDS011;64300;45.034;38.910;2023-03-01T03:04:03;13.80;;;6.47;;
75687;SDS011;64300;45.034;38.910;2023-03-01T03:06:30;14.13;;;6.72;;
75687;SDS011;64300;45.034;38.910;2023-03-01T03:08:56;14.10;;;7.03;;
75687;SDS011;64300;45.034;38.910;2023-03-01T03:11:23;17.88;;;7.35;;
75687;SDS011;64300;45.034;38.910;2023-03-01T03:13:50;13.85;;;6.15;;
75687;SDS011;64300;45.034;38.910;2023-03-01T03:16:26;19.75;;;7.07;;
75687;SDS011;64300;45.034;38.910;2023-03-01T03:18:55;14.23;;;7.18;;
75687;SDS011;64300;45.034;38.910;2023-03-01T03:21:31;12.18;;;5.78;;
75687;SDS011;64300;45.034;38.910;2023-03-01T03:23:58;15.15;;;6.70;;
75687;SDS011;64300;45.034;38.910;2023-03-01T03:26:24;15.25;;;6.15;;
75687;SDS011;64300;45.034;38.910;2023-03-01T03:28:50;13.00;;;5.60;;
75687;SDS011;64300;45.034;38.910;2023-03-01T03:31:16;16.13;;;7.15;;
75687;SDS011;64300;45.034;38.910;2023-03-01T03:33:42;14.77;;;6.72;;
75687;SDS011;64300;45.034;38.910;2023-03-01T03:36:08;14.88;;;7.15;;
75687;SDS011;64300;45.034;38.910;2023-03-01T03:38:38;14.63;;;6.93;;
75687;SDS011;64300;45.034;38.910;2023-03-01T03:41:06;16.40;;;7.88;;
75687;SDS011;64300;45.034;38.910;2023-03-01T03:43:35;16.20;;;6.82;;
75687;SDS011;64300;45.034;38.910;2023-03-01T03:46:02;15.90;;;7.22;;
75687;SDS011;64300;45.034;38.910;2023-03-01T03:48:34;16.27;;;6.90;;
75687;SDS011;64300;45.034;38.910;2023-03-01T03:51:02;14.95;;;6.68;;
75687;SDS011;64300;45.034;38.910;2023-03-01T03:53:30;14.95;;;6.97;;
75687;SDS011;64300;45.034;38.910;2023-03-01T03:58:23;15.00;;;6.28;;
75687;SDS011;64300;45.034;38.910;2023-03-01T04:00:54;15.70;;;6.55;;
75687;SDS011;64300;45.034;38.910;2023-03-01T04:03:21;16.20;;;6.85;;
75687;SDS011;64300;45.034;38.910;2023-03-01T04:05:51;14.43;;;5.97;;
75687;SDS011;64300;45.034;38.910;2023-03-01T04:08:19;15.05;;;6.95;;
75687;SDS011;64300;45.034;38.910;2023-03-01T04:10:47;17.88;;;7.72;;
75687;SDS011;64300;45.034;38.910;2023-03-01T04:13:15;14.73;;;6.55;;
75687;SDS011;64300;45.034;38.910;2023-03-01T04:15:48;15.98;;;7.28;;
75687;SDS011;64300;45.034;38.910;2023-03-01T04:18:16;14.35;;;6.82;;
75687;SDS011;64300;45.034;38.910;2023-03-01T04:20:44;15.68;;;7.50;;
75687;SDS011;64300;45.034;38.910;2023-03-01T04:23:17;15.02;;;7.13;;
75687;SDS011;64300;45.034;38.910;2023-03-01T04:25:47;16.20;;;6.97;;
75687;SDS011;64300;45.034;38.910;2023-03-01T04:30:52;18.50;;;7.35;;
75687;SDS011;64300;45.034;38.910;2023-03-01T04:33:18;18.13;;;6.93;;
75687;SDS011;64300;45.034;38.910;2023-03-01T04:35:44;18.65;;;6.65;;
75687;SDS011;64300;45.034;38.910;2023-03-01T04:38:10;16.55;;;6.65;;
75687;SDS011;64300;45.034;38.910;2023-03-01T04:40:36;15.75;;;6.97;;
75687;SDS011;64300;45.034;38.910;2023-03-01T04:45:47;18.42;;;7.25;;
75687;SDS011;64300;45.034;38.910;2023-03-01T04:48:13;17.38;;;6.93;;
75687;SDS011;64300;45.034;38.910;2023-03-01T04:50:39;17.58;;;7.38;;
75687;SDS011;64300;45.034;38.910;2023-03-01T04:53:05;19.23;;;8.20;;
75687;SDS011;64300;45.034;38.910;2023-03-01T04:55:30;11.93;;;5.65;;
75687;SDS011;64300;45.034;38.910;2023-03-01T04:57:56;15.98;;;6.88;;
75687;SDS011;64300;45.034;38.910;2023-03-01T05:00:22;16.20;;;6.55;;
75687;SDS011;64300;45.034;38.910;2023-03-01T05:05:35;14.10;;;6.22;;
75687;SDS011;64300;45.034;38.910;2023-03-01T05:08:03;16.73;;;7.40;;
75687;SDS011;64300;45.034;38.910;2023-03-01T05:10:31;13.57;;;6.20;;
75687;SDS011;64300;45.034;38.910;2023-03-01T05:13:00;15.50;;;5.55;;
75687;SDS011;64300;45.034;38.910;2023-03-01T05:15:27;13.48;;;5.40;;
75687;SDS011;64300;45.034;38.910;2023-03-01T05:17:59;15.88;;;6.38;;
75687;SDS011;64300;45.034;38.910;2023-03-01T05:20:26;18.98;;;7.63;;
75687;SDS011;64300;45.034;38.910;2023-03-01T05:22:57;18.30;;;6.97;;
75687;SDS011;64300;45.034;38.910;2023-03-01T05:25:24;14.60;;;6.22;;
75687;SDS011;64300;45.034;38.910;2023-03-01T05:27:50;15.20;;;7.07;;
75687;SDS011;64300;45.034;38.910;2023-03-01T05:30:16;14.07;;;6.38;;
75687;SDS011;64300;45.034;38.910;2023-03-01T05:32:46;14.95;;;6.38;;
75687;SDS011;64300;45.034;38.910;2023-03-01T05:35:15;14.05;;;6.35;;
75687;SDS011;64300;45.034;38.910;2023-03-01T05:37:42;14.30;;;6.57;;
75687;SDS011;64300;45.034;38.910;2023-03-01T05:40:10;16.52;;;7.35;;
75687;SDS011;64300;45.034;38.910;2023-03-01T05:42:42;13.93;;;6.20;;
75687;SDS011;64300;45.034;38.910;2023-03-01T05:45:09;19.00;;;7.75;;
75687;SDS011;64300;45.034;38.910;2023-03-01T05:47:38;17.05;;;6.93;;
75687;SDS011;64300;45.034;38.910;2023-03-01T05:53:08;13.45;;;5.57;;
75687;SDS011;64300;45.034;38.910;2023-03-01T05:55:39;15.32;;;6.80;;
75687;SDS011;64300;45.034;38.910;2023-03-01T06:00:32;18.13;;;6.50;;
75687;SDS011;64300;45.034;38.910;2023-03-01T06:02:58;19.90;;;7.90;;
75687;SDS011;64300;45.034;38.910;2023-03-01T06:05:25;16.65;;;7.28;;
75687;SDS011;64300;45.034;38.910;2023-03-01T06:07:51;17.25;;;7.43;;
75687;SDS011;64300;45.034;38.910;2023-03-01T06:10:18;18.38;;;7.70;;
75687;SDS011;64300;45.034;38.910;2023-03-01T06:12:46;18.67;;;8.18;;
75687;SDS011;64300;45.034;38.910;2023-03-01T06:15:13;17.67;;;8.18;;
75687;SDS011;64300;45.034;38.910;2023-03-01T06:17:41;21.05;;;8.38;;
75687;SDS011;64300;45.034;38.910;2023-03-01T06:22:48;17.08;;;8.13;;
75687;SDS011;64300;45.034;38.910;2023-03-01T06:25:18;18.13;;;7.93;;
75687;SDS011;64300;45.034;38.910;2023-03-01T06:27:47;15.40;;;6.32;;
75687;SDS011;64300;45.034;38.910;2023-03-01T06:30:14;15.18;;;6.38;;
75687;SDS011;64300;45.034;38.910;2023-03-01T06:32:42;15.50;;;6.88;;
75687;SDS011;64300;45.034;38.910;2023-03-01T06:35:12;13.18;;;4.85;;
75687;SDS011;64300;45.034;38.910;2023-03-01T06:37:42;13.60;;;5.55;;
75687;SDS011;64300;45.034;38.910;2023-03-01T06:40:10;25.42;;;8.65;;
75687;SDS011;64300;45.034;38.910;2023-03-01T06:42:37;15.93;;;5.75;;
75687;SDS011;64300;45.034;38.910;2023-03-01T06:45:05;16.08;;;7.40;;
75687;SDS011;64300;45.034;38.910;2023-03-01T06:50:26;15.68;;;5.40;;
75687;SDS011;64300;45.034;38.910;2023-03-01T06:52:55;20.02;;;8.45;;
75687;SDS011;64300;45.034;38.910;2023-03-01T06:55:21;14.00;;;5.70;;
75687;SDS011;64300;45.034;38.910;2023-03-01T06:57:47;12.27;;;4.88;;
75687;SDS011;64300;45.034;38.910;2023-03-01T07:02:40;9.93;;;4.70;;
75687;SDS011;64300;45.034;38.910;2023-03-01T07:05:06;17.70;;;5.97;;
75687;SDS011;64300;45.034;38.910;2023-03-01T07:07:32;21.30;;;7.18;;
75687;SDS011;64300;45.034;38.910;2023-03-01T07:09:58;15.98;;;7.25;;
75687;SDS011;64300;45.034;38.910;2023-03-01T07:12:24;16.25;;;7.65;;
75687;SDS011;64300;45.034;38.910;2023-03-01T07:17:16;17.30;;;7.65;;
75687;SDS011;64300;45.034;38.910;2023-03-01T07:19:42;15.77;;;7.25;;
75687;SDS011;64300;45.034;38.910;2023-03-01T07:22:07;16.88;;;7.80;;
75687;SDS011;64300;45.034;38.910;2023-03-01T07:24:34;14.90;;;6.90;;
75687;SDS011;64300;45.034;38.910;2023-03-01T07:29:26;16.27;;;7.57;;
75687;SDS011;64300;45.034;38.910;2023-03-01T07:31:54;10.55;;;4.50;;
75687;SDS011;64300;45.034;38.910;2023-03-01T07:36:46;15.30;;;7.40;;
75687;SDS011;64300;45.034;38.910;2023-03-01T07:39:12;12.93;;;5.90;;
75687;SDS011;64300;45.034;38.910;2023-03-01T07:41:38;5.90;;;3.90;;
75687;SDS011;64300;45.034;38.910;2023-03-01T07:44:04;17.95;;;7.15;;
75687;SDS011;64300;45.034;38.910;2023-03-01T07:46:30;15.38;;;7.22;;
75687;SDS011;64300;45.034;38.910;2023-03-01T07:48:57;13.65;;;6.90;;
75687;SDS011;64300;45.034;38.910;2023-03-01T07:51:23;16.17;;;6.80;;
75687;SDS011;64300;45.034;38.910;2023-03-01T07:53:49;11.60;;;6.18;;
75687;SDS011;64300;45.034;38.910;2023-03-01T07:58:46;11.70;;;6.20;;
75687;SDS011;64300;45.034;38.910;2023-03-01T08:03:41;13.35;;;6.85;;
75687;SDS011;64300;45.034;38.910;2023-03-01T08:06:09;16.35;;;7.00;;
75687;SDS011;64300;45.034;38.910;2023-03-01T08:08:36;7.18;;;3.90;;
75687;SDS011;64300;45.034;38.910;2023-03-01T08:11:04;12.77;;;6.50;;
75687;SDS011;64300;45.034;38.910;2023-03-01T08:13:31;14.98;;;6.70;;
75687;SDS011;64300;45.034;38.910;2023-03-01T08:18:27;11.73;;;5.47;;
75687;SDS011;64300;45.034;38.910;2023-03-01T08:20:56;17.95;;;7.63;;
75687;SDS011;64300;45.034;38.910;2023-03-01T08:23:26;13.50;;;7.18;;
75687;SDS011;64300;45.034;38.910;2023-03-01T08:25:52;15.52;;;7.97;;
75687;SDS011;64300;45.034;38.910;2023-03-01T08:30:44;20.00;;;7.07;;
75687;SDS011;64300;45.034;38.910;2023-03-01T08:35:50;16.05;;;8.20;;
75687;SDS011;64300;45.034;38.910;2023-03-01T08:40:42;17.50;;;7.13;;
75687;SDS011;64300;45.034;38.910;2023-03-01T08:45:33;12.27;;;5.75;;
75687;SDS011;64300;45.034;38.910;2023-03-01T08:50:25;15.80;;;6.80;;
75687;SDS011;64300;45.034;38.910;2023-03-01T08:52:54;13.88;;;6.47;;
75687;SDS011;64300;45.034;38.910;2023-03-01T08:55:20;10.65;;;5.60;;
75687;SDS011;64300;45.034;38.910;2023-03-01T09:00:11;10.05;;;5.47;;
75687;SDS011;64300;45.034;38.910;2023-03-01T09:02:40;14.93;;;6.50;;
75687;SDS011;64300;45.034;38.910;2023-03-01T09:07:31;17.05;;;7.10;;
75687;SDS011;64300;45.034;38.910;2023-03-01T09:12:23;11.77;;;5.88;;
75687;SDS011;64300;45.034;38.910;2023-03-01T09:14:51;13.23;;;7.00;;
75687;SDS011;64300;45.034;38.910;2023-03-01T09:17:18;14.18;;;7.03;;
75687;SDS011;64300;45.034;38.910;2023-03-01T09:19:46;13.98;;;7.05;;
75687;SDS011;64300;45.034;38.910;2023-03-01T09:24:38;12.18;;;6.10;;
75687;SDS011;64300;45.034;38.910;2023-03-01T09:27:04;17.42;;;7.10;;
75687;SDS011;64300;45.034;38.910;2023-03-01T09:30:17;15.00;;;7.07;;
75687;SDS011;64300;45.034;38.910;2023-03-01T09:32:55;11.02;;;5.63;;
75687;SDS011;64300;45.034;38.910;2023-03-01T09:36:25;14.90;;;6.85;;
75687;SDS011;64300;45.034;38.910;2023-03-01T09:46:32;10.30;;;5.18;;
75687;SDS011;64300;45.034;38.910;2023-03-01T09:49:10;12.95;;;6.10;;
75687;SDS011;64300;45.034;38.910;2023-03-01T09:51:42;14.38;;;6.00;;
75687;SDS011;64300;45.034;38.910;2023-03-01T09:54:14;12.25;;;5.28;;
75687;SDS011;64300;45.034;38.910;2023-03-01T10:01:48;15.68;;;5.93;;
75687;SDS011;64300;45.034;38.910;2023-03-01T10:07:01;21.85;;;7.90;;
75687;SDS011;64300;45.034;38.910;2023-03-01T10:09:39;13.43;;;7.25;;
75687;SDS011;64300;45.034;38.910;2023-03-01T10:12:09;17.23;;;8.57;;
75687;SDS011;64300;45.034;38.910;2023-03-01T10:14:50;14.77;;;7.28;;
75687;SDS011;64300;45.034;38.910;2023-03-01T10:22:44;17.23;;;7.32;;
75687;SDS011;64300;45.034;38.910;2023-03-01T10:25:17;17.02;;;8.13;;
75687;SDS011;64300;45.034;38.910;2023-03-01T10:31:13;16.35;;;8.27;;
75687;SDS011;64300;45.034;38.910;2023-03-01T10:33:43;14.20;;;6.43;;
75687;SDS011;64300;45.034;38.910;2023-03-01T10:38:49;10.55;;;5.13;;
75687;SDS011;64300;45.034;38.910;2023-03-01T10:41:24;11.10;;;4.72;;
75687;SDS011;64300;45.034;38.910;2023-03-01T10:43:52;7.80;;;3.83;;
75687;SDS011;64300;45.034;38.910;2023-03-01T10:49:42;8.60;;;3.92;;
75687;SDS011;64300;45.034;38.910;2023-03-01T10:51:51;11.13;;;5.50;;
75687;SDS011;64300;45.034;38.910;2023-03-01T10:54:20;11.95;;;3.42;;
75687;SDS011;64300;45.034;38.910;2023-03-01T10:56:55;14.60;;;6.15;;
75687;SDS011;64300;45.034;38.910;2023-03-01T10:59:26;13.43;;;6.45;;
75687;SDS011;64300;45.034;38.910;2023-03-01T11:02:04;11.18;;;5.72;;
75687;SDS011;64300;45.034;38.910;2023-03-01T11:04:59;8.02;;;3.70;;
75687;SDS011;64300;45.034;38.910;2023-03-01T11:07:27;10.40;;;4.68;;
75687;SDS011;64300;45.034;38.910;2023-03-01T11:10:10;13.02;;;5.75;;
75687;SDS011;64300;45.034;38.910;2023-03-01T11:12:37;16.70;;;6.75;;
75687;SDS011;64300;45.034;38.910;2023-03-01T11:15:03;12.95;;;6.40;;
75687;SDS011;64300;45.034;38.910;2023-03-01T11:17:30;10.82;;;5.43;;
75687;SDS011;64300;45.034;38.910;2023-03-01T11:22:42;10.50;;;5.10;;
75687;SDS011;64300;45.034;38.910;2023-03-01T11:25:25;11.98;;;5.78;;
75687;SDS011;64300;45.034;38.910;2023-03-01T11:27:54;8.65;;;3.45;;
75687;SDS011;64300;45.034;38.910;2023-03-01T11:35:36;9.65;;;4.40;;
75687;SDS011;64300;45.034;38.910;2023-03-01T11:38:14;11.73;;;5.40;;
75687;SDS011;64300;45.034;38.910;2023-03-01T11:40:53;10.23;;;5.40;;
75687;SDS011;64300;45.034;38.910;2023-03-01T11:51:51;11.00;;;5.10;;
75687;SDS011;64300;45.034;38.910;2023-03-01T11:54:46;15.80;;;6.68;;
75687;SDS011;64300;45.034;38.910;2023-03-01T12:03:09;16.13;;;6.05;;
75687;SDS011;64300;45.034;38.910;2023-03-01T12:06:12;13.57;;;6.32;;
75687;SDS011;64300;45.034;38.910;2023-03-01T12:09:02;11.27;;;5.72;;
75687;SDS011;64300;45.034;38.910;2023-03-01T12:19:33;11.50;;;5.50;;
75687;SDS011;64300;45.034;38.910;2023-03-01T12:24:48;14.20;;;4.88;;
75687;SDS011;64300;45.034;38.910;2023-03-01T12:36:41;13.55;;;5.43;;
75687;SDS011;64300;45.034;38.910;2023-03-01T12:48:01;14.23;;;4.35;;
75687;SDS011;64300;45.034;38.910;2023-03-01T12:50:47;13.13;;;4.60;;
75687;SDS011;64300;45.034;38.910;2023-03-01T12:53:29;10.30;;;4.07;;
75687;SDS011;64300;45.034;38.910;2023-03-01T12:56:17;17.02;;;5.43;;
75687;SDS011;64300;45.034;38.910;2023-03-01T12:59:01;17.45;;;6.70;;
75687;SDS011;64300;45.034;38.910;2023-03-01T13:04:18;10.10;;;4.13;;
75687;SDS011;64300;45.034;38.910;2023-03-01T13:07:15;13.43;;;5.05;;
75687;SDS011;64300;45.034;38.910;2023-03-01T13:13:10;11.70;;;4.63;;
75687;SDS011;64300;45.034;38.910;2023-03-01T13:15:44;13.73;;;6.05;;
75687;SDS011;64300;45.034;38.910;2023-03-01T13:31:02;14.45;;;5.95;;
75687;SDS011;64300;45.034;38.910;2023-03-01T13:36:01;16.50;;;6.20;;
75687;SDS011;64300;45.034;38.910;2023-03-01T13:41:08;17.00;;;7.50;;
75687;SDS011;64300;45.034;38.910;2023-03-01T13:43:35;18.30;;;6.53;;
75687;SDS011;64300;45.034;38.910;2023-03-01T13:46:23;16.73;;;7.45;;
75687;SDS011;64300;45.034;38.910;2023-03-01T13:48:50;15.63;;;6.57;;
75687;SDS011;64300;45.034;38.910;2023-03-01T13:51:20;12.93;;;6.10;;
75687;SDS011;64300;45.034;38.910;2023-03-01T13:56:21;12.10;;;5.43;;
75687;SDS011;64300;45.034;38.910;2023-03-01T13:59:13;13.57;;;6.25;;
75687;SDS011;64300;45.034;38.910;2023-03-01T14:01:41;11.63;;;5.45;;
75687;SDS011;64300;45.034;38.910;2023-03-01T14:09:43;16.40;;;7.13;;
75687;SDS011;64300;45.034;38.910;2023-03-01T14:15:02;12.90;;;5.90;;
75687;SDS011;64300;45.034;38.910;2023-03-01T14:20:29;12.25;;;5.00;;
75687;SDS011;64300;45.034;38.910;2023-03-01T14:22:58;16.00;;;5.88;;
75687;SDS011;64300;45.034;38.910;2023-03-01T14:25:28;14.85;;;5.43;;
75687;SDS011;64300;45.034;38.910;2023-03-01T14:28:03;13.70;;;6.40;;
75687;SDS011;64300;45.034;38.910;2023-03-01T14:30:46;18.48;;;7.28;;
75687;SDS011;64300;45.034;38.910;2023-03-01T14:38:32;13.18;;;6.00;;
75687;SDS011;64300;45.034;38.910;2023-03-01T14:41:10;18.17;;;6.75;;
75687;SDS011;64300;45.034;38.910;2023-03-01T14:43:43;17.58;;;8.73;;
75687;SDS011;64300;45.034;38.910;2023-03-01T14:46:22;15.75;;;6.43;;
75687;SDS011;64300;45.034;38.910;2023-03-01T14:48:51;17.95;;;8.10;;
75687;SDS011;64300;45.034;38.910;2023-03-01T14:51:21;16.77;;;7.93;;
75687;SDS011;64300;45.034;38.910;2023-03-01T14:53:47;18.20;;;9.00;;
75687;SDS011;64300;45.034;38.910;2023-03-01T14:56:15;18.08;;;6.47;;
75687;SDS011;64300;45.034;38.910;2023-03-01T14:58:44;23.23;;;8.88;;
75687;SDS011;64300;45.034;38.910;2023-03-01T15:01:13;18.58;;;8.57;;
75687;SDS011;64300;45.034;38.910;2023-03-01T15:03:50;16.67;;;8.23;;
75687;SDS011;64300;45.034;38.910;2023-03-01T15:06:18;17.60;;;7.25;;
75687;SDS011;64300;45.034;38.910;2023-03-01T15:08:46;18.58;;;7.03;;
75687;SDS011;64300;45.034;38.910;2023-03-01T15:13:57;10.40;;;4.78;;
75687;SDS011;64300;45.034;38.910;2023-03-01T15:16:26;14.73;;;7.93;;
75687;SDS011;64300;45.034;38.910;2023-03-01T15:18:58;16.48;;;6.63;;
75687;SDS011;64300;45.034;38.910;2023-03-01T15:21:30;23.85;;;9.55;;
75687;SDS011;64300;45.034;38.910;2023-03-01T15:24:08;26.45;;;9.80;;
75687;SDS011;64300;45.034;38.910;2023-03-01T15:26:50;26.80;;;10.75;;
75687;SDS011;64300;45.034;38.910;2023-03-01T15:29:24;24.95;;;8.38;;
75687;SDS011;64300;45.034;38.910;2023-03-01T15:32:02;15.52;;;6.70;;
75687;SDS011;64300;45.034;38.910;2023-03-01T15:34:52;10.02;;;4.20;;
75687;SDS011;64300;45.034;38.910;2023-03-01T15:42:44;14.88;;;6.35;;
75687;SDS011;64300;45.034;38.910;2023-03-01T15:45:19;8.65;;;4.72;;
75687;SDS011;64300;45.034;38.910;2023-03-01T15:47:57;17.13;;;6.53;;
75687;SDS011;64300;45.034;38.910;2023-03-01T15:50:32;19.92;;;9.35;;
75687;SDS011;64300;45.034;38.910;2023-03-01T15:53:00;20.45;;;8.13;;
75687;SDS011;64300;45.034;38.910;2023-03-01T15:55:30;23.23;;;9.68;;
75687;SDS011;64300;45.034;38.910;2023-03-01T15:58:31;27.00;;;8.93;;
75687;SDS011;64300;45.034;38.910;2023-03-01T16:00:51;17.63;;;9.13;;
75687;SDS011;64300;45.034;38.910;2023-03-01T16:03:21;19.30;;;6.70;;
75687;SDS011;64300;45.034;38.910;2023-03-01T16:05:48;14.45;;;7.35;;
75687;SDS011;64300;45.034;38.910;2023-03-01T16:08:15;23.88;;;8.25;;
75687;SDS011;64300;45.034;38.910;2023-03-01T16:10:41;21.92;;;9.10;;
75687;SDS011;64300;45.034;38.910;2023-03-01T16:13:10;16.20;;;6.55;;
75687;SDS011;64300;45.034;38.910;2023-03-01T16:15:37;20.63;;;8.35;;
75687;SDS011;64300;45.034;38.910;2023-03-01T16:18:04;14.90;;;7.10;;
75687;SDS011;64300;45.034;38.910;2023-03-01T16:20:31;15.07;;;7.28;;
75687;SDS011;64300;45.034;38.910;2023-03-01T16:22:58;20.33;;;8.20;;
75687;SDS011;64300;45.034;38.910;2023-03-01T16:25:28;21.38;;;8.05;;
75687;SDS011;64300;45.034;38.910;2023-03-01T16:27:55;21.48;;;10.48;;
75687;SDS011;64300;45.034;38.910;2023-03-01T16:30:23;16.15;;;7.72;;
75687;SDS011;64300;45.034;38.910;2023-03-01T16:32:49;26.08;;;9.73;;
75687;SDS011;64300;45.034;38.910;2023-03-01T16:37:43;18.30;;;8.05;;
75687;SDS011;64300;45.034;38.910;2023-03-01T16:42:43;27.25;;;8.20;;
75687;SDS011;64300;45.034;38.910;2023-03-01T16:45:09;19.08;;;9.35;;
75687;SDS011;64300;45.034;38.910;2023-03-01T16:47:35;20.05;;;7.88;;
75687;SDS011;64300;45.034;38.910;2023-03-01T16:50:01;19.55;;;7.60;;
75687;SDS011;64300;45.034;38.910;2023-03-01T16:52:28;22.65;;;7.35;;
75687;SDS011;64300;45.034;38.910;2023-03-01T16:54:54;18.92;;;8.23;;
75687;SDS011;64300;45.034;38.910;2023-03-01T16:57:20;11.98;;;5.55;;
75687;SDS011;64300;45.034;38.910;2023-03-01T16:59:47;18.75;;;6.95;;
75687;SDS011;64300;45.034;38.910;2023-03-01T17:02:19;14.05;;;7.07;;
75687;SDS011;64300;45.034;38.910;2023-03-01T17:04:54;12.88;;;6.18;;
75687;SDS011;64300;45.034;38.910;2023-03-01T17:07:21;22.77;;;9.88;;
75687;SDS011;64300;45.034;38.910;2023-03-01T17:09:47;9.63;;;4.53;;
75687;SDS011;64300;45.034;38.910;2023-03-01T17:12:14;22.90;;;10.95;;
75687;SDS011;64300;45.034;38.910;2023-03-01T17:14:41;30.20;;;10.82;;
75687;SDS011;64300;45.034;38.910;2023-03-01T17:17:08;27.30;;;11.55;;
75687;SDS011;64300;45.034;38.910;2023-03-01T17:19:34;30.50;;;14.20;;
75687;SDS011;64300;45.034;38.910;2023-03-01T17:22:05;26.92;;;11.48;;
75687;SDS011;64300;45.034;38.910;2023-03-01T17:24:35;25.45;;;10.13;;
75687;SDS011;64300;45.034;38.910;2023-03-01T17:27:02;27.10;;;9.73;;
75687;SDS011;64300;45.034;38.910;2023-03-01T17:29:28;28.92;;;11.25;;
75687;SDS011;64300;45.034;38.910;2023-03-01T17:31:54;23.40;;;9.70;;
75687;SDS011;64300;45.034;38.910;2023-03-01T17:34:21;30.45;;;10.63;;
75687;SDS011;64300;45.034;38.910;2023-03-01T17:36:48;29.00;;;10.60;;
75687;SDS011;64300;45.034;38.910;2023-03-01T17:39:16;24.42;;;10.82;;
75687;SDS011;64300;45.034;38.910;2023-03-01T17:41:44;24.48;;;10.40;;
75687;SDS011;64300;45.034;38.910;2023-03-01T17:44:10;22.70;;;10.05;;
75687;SDS011;64300;45.034;38.910;2023-03-01T17:46:36;23.15;;;9.73;;
75687;SDS011;64300;45.034;38.910;2023-03-01T17:49:02;22.83;;;6.50;;
75687;SDS011;64300;45.034;38.910;2023-03-01T17:51:28;28.23;;;9.35;;
75687;SDS011;64300;45.034;38.910;2023-03-01T17:53:56;24.30;;;8.60;;
75687;SDS011;64300;45.034;38.910;2023-03-01T17:56:22;21.15;;;8.63;;
75687;SDS011;64300;45.034;38.910;2023-03-01T17:58:48;20.67;;;8.85;;
75687;SDS011;64300;45.034;38.910;2023-03-01T18:01:16;16.02;;;7.75;;
75687;SDS011;64300;45.034;38.910;2023-03-01T18:03:43;20.55;;;7.60;;
75687;SDS011;64300;45.034;38.910;2023-03-01T18:06:14;24.15;;;8.23;;
75687;SDS011;64300;45.034;38.910;2023-03-01T18:11:09;16.85;;;6.47;;
75687;SDS011;64300;45.034;38.910;2023-03-01T18:13:36;20.27;;;7.93;;
75687;SDS011;64300;45.034;38.910;2023-03-01T18:16:05;19.70;;;7.18;;
75687;SDS011;64300;45.034;38.910;2023-03-01T18:18:32;20.35;;;8.02;;
75687;SDS011;64300;45.034;38.910;2023-03-01T18:20:58;24.42;;;9.80;;
75687;SDS011;64300;45.034;38.910;2023-03-01T18:23:28;18.92;;;8.88;;